Time;durP1;ratioP1;P1;durP2;ratioP2;P2;SDS_P1;SDS_P2;PMS_P1;PMS_P2;Temp;Humidity;BMP_temperature;BMP_pressure;BME280_temperature;BME280_humidity;BME280_pressure;Samples;Min_cycle;Max_cycle;Signal;HPM_P1;HPM_P2
2022/09/20 00:01:30;;;;;;;5.35;1.20;;;11.80;99.90;;;;;;4995948;28;20582;-64
2022/09/20 00:04:03;;;;;;;2.10;1.33;;;11.70;99.90;;;;;;4994629;28;20202;-64
2022/09/20 00:06:32;;;;;;;6.82;0.82;;;11.90;99.90;;;;;;4990052;28;20221;-64
2022/09/20 00:09:00;;;;;;;1.70;0.82;;;11.80;99.90;;;;;;5008016;28;20226;-64
2022/09/20 00:11:29;;;;;;;9.32;0.90;;;11.70;99.90;;;;;;4993933;28;22817;-65
2022/09/20 00:13:58;;;;;;;3.97;0.70;;;11.70;99.90;;;;;;4979200;28;20222;-64
2022/09/20 00:16:27;;;;;;;5.50;0.75;;;10.70;99.90;;;;;;4992977;28;20238;-64
2022/09/20 00:18:58;;;;;;;3.42;0.98;;;11.70;99.90;;;;;;4998442;28;20237;-63
2022/09/20 00:21:26;;;;;;;6.85;0.90;;;11.70;99.90;;;;;;4978449;28;25483;-64
2022/09/20 00:23:56;;;;;;;2.60;0.98;;;11.80;99.90;;;;;;5004462;28;20195;-64
2022/09/20 00:26:23;;;;;;;1.80;0.70;;;11.00;99.90;;;;;;4995904;28;20239;-64
2022/09/20 00:28:50;;;;;;;1.23;0.65;;;11.80;99.90;;;;;;4998142;28;20241;-64
2022/09/20 00:31:17;;;;;;;5.32;0.80;;;11.90;99.90;;;;;;4975289;28;20825;-64
2022/09/20 00:36:30;;;;;;;1.48;0.60;;;12.00;99.90;;;;;;4961712;28;20213;-64
2022/09/20 00:38:58;;;;;;;1.75;0.80;;;12.10;99.90;;;;;;5009459;28;20882;-64
2022/09/20 00:41:25;;;;;;;1.13;0.57;;;12.10;99.90;;;;;;4976976;28;20203;-65
2022/09/20 00:43:53;;;;;;;2.70;0.60;;;12.00;99.90;;;;;;5000412;28;20202;-64
2022/09/20 00:46:26;;;;;;;2.13;0.55;;;12.00;99.90;;;;;;4974847;28;20202;-64
2022/09/20 00:48:55;;;;;;;8.98;1.08;;;12.00;99.90;;;;;;4999188;28;20226;-65
2022/09/20 00:51:26;;;;;;;4.88;0.88;;;12.00;99.90;;;;;;4993123;28;20210;-66
2022/09/20 00:53:57;;;;;;;3.03;0.68;;;12.10;99.90;;;;;;4981905;28;20229;-65
2022/09/20 00:56:29;;;;;;;1.42;0.70;;;12.10;99.90;;;;;;4974953;28;20827;-65
2022/09/20 00:59:04;;;;;;;3.17;0.98;;;12.10;99.90;;;;;;4977007;28;21354;-64
2022/09/20 01:01:31;;;;;;;1.38;0.50;;;;;;;;;;4980608;28;20197;-64
2022/09/20 01:04:00;;;;;;;2.58;0.73;;;12.00;99.90;;;;;;4997427;28;20205;-64
2022/09/20 01:06:28;;;;;;;2.22;0.98;;;12.70;99.90;;;;;;4992624;28;20205;-64
2022/09/20 01:09:01;;;;;;;1.40;0.60;;;12.20;99.90;;;;;;4963271;28;20254;-65
2022/09/20 01:11:29;;;;;;;5.45;0.50;;;12.30;99.90;;;;;;4977377;28;20676;-65
2022/09/20 01:13:56;;;;;;;2.10;1.35;;;13.00;99.90;;;;;;4988258;28;20810;-65
2022/09/20 01:16:24;;;;;;;2.88;0.75;;;12.30;99.90;;;;;;4953099;28;20723;-65
2022/09/20 01:18:52;;;;;;;2.50;0.95;;;14.10;99.90;;;;;;4995108;28;20209;-65
2022/09/20 01:21:20;;;;;;;0.98;0.73;;;12.40;99.90;;;;;;4974869;28;20203;-65
2022/09/20 01:23:56;;;;;;;1.88;1.02;;;12.40;99.90;;;;;;4990688;28;20210;-65
2022/09/20 01:26:56;;;;;;;4.88;0.80;;;12.40;99.90;;;;;;4992004;28;20668;-64
2022/09/20 01:29:46;;;;;;;1.65;0.85;;;12.30;99.90;;;;;;4996740;28;20233;-65
2022/09/20 01:32:16;;;;;;;4.90;1.17;;;12.30;99.90;;;;;;4968820;28;20205;-65
2022/09/20 01:34:47;;;;;;;2.42;0.90;;;12.50;99.90;;;;;;5008845;28;20195;-65
2022/09/20 01:37:20;;;;;;;2.72;0.80;;;12.40;99.90;;;;;;5004128;28;20209;-65
2022/09/20 01:39:55;;;;;;;7.30;1.02;;;12.40;99.90;;;;;;4992522;28;20221;-65
2022/09/20 01:42:29;;;;;;;5.32;1.30;;;12.40;99.90;;;;;;4993402;28;21025;-65
2022/09/20 01:45:03;;;;;;;4.45;1.17;;;12.40;99.90;;;;;;5005389;28;20667;-65
2022/09/20 01:47:35;;;;;;;6.75;1.33;;;12.30;99.90;;;;;;4980448;28;20280;-65
2022/09/20 01:50:12;;;;;;;2.80;1.30;;;12.40;99.90;;;;;;5008350;28;20213;-66
2022/09/20 01:53:05;;;;;;;2.42;1.02;;;10.30;99.90;;;;;;5010863;28;20507;-65
2022/09/20 01:56:05;;;;;;;3.58;1.38;;;12.30;99.90;;;;;;4987636;28;20233;-65
2022/09/20 01:59:07;;;;;;;2.92;1.25;;;12.30;99.90;;;;;;4985754;28;20327;-65
2022/09/20 02:02:06;;;;;;;5.80;1.35;;;12.30;99.90;;;;;;4945405;28;21142;-65
2022/09/20 02:05:04;;;;;;;8.35;1.77;;;12.20;99.90;;;;;;5005879;28;21068;-65
2022/09/20 02:07:58;;;;;;;7.30;1.55;;;12.40;99.90;;;;;;4996877;28;20261;-65
2022/09/20 02:10:41;;;;;;;7.85;1.40;;;11.30;99.90;;;;;;4989591;28;20236;-65
2022/09/20 02:13:19;;;;;;;11.73;1.67;;;12.10;99.90;;;;;;5002033;28;20746;-65
2022/09/20 02:16:20;;;;;;;4.72;1.23;;;12.20;99.90;;;;;;4992053;28;20247;-65
2022/09/20 02:19:20;;;;;;;3.00;1.38;;;12.10;99.90;;;;;;4986835;28;20453;-65
2022/09/20 02:21:54;;;;;;;5.10;1.05;;;12.10;99.90;;;;;;4991820;28;20619;-65
2022/09/20 02:24:28;;;;;;;3.38;1.38;;;12.00;99.90;;;;;;4998771;28;21149;-65
2022/09/20 02:27:07;;;;;;;5.32;1.55;;;12.10;99.90;;;;;;4987429;28;20305;-65
2022/09/20 02:29:47;;;;;;;9.48;1.90;;;12.00;99.90;;;;;;4984400;28;20226;-65
2022/09/20 02:32:29;;;;;;;7.82;1.35;;;12.30;99.90;;;;;;4989242;28;20422;-65
2022/09/20 02:35:16;;;;;;;8.07;1.85;;;11.20;99.90;;;;;;4999526;28;20199;-65
2022/09/20 02:38:01;;;;;;;7.63;1.20;;;12.00;99.90;;;;;;4990636;28;20210;-65
2022/09/20 02:40:55;;;;;;;3.38;1.13;;;12.00;99.90;;;;;;4986081;28;20214;-65
2022/09/20 02:43:30;;;;;;;5.63;1.25;;;11.90;99.90;;;;;;4984295;28;20249;-65
2022/09/20 02:46:06;;;;;;;6.35;1.80;;;11.80;99.90;;;;;;4985003;28;20198;-64
2022/09/20 02:48:39;;;;;;;5.63;1.25;;;11.80;99.90;;;;;;4983385;28;20227;-65
2022/09/20 02:51:18;;;;;;;6.10;1.23;;;11.70;99.90;;;;;;5001891;28;20566;-65
2022/09/20 02:53:51;;;;;;;4.70;1.77;;;11.70;99.90;;;;;;5000706;28;20973;-65
2022/09/20 02:56:29;;;;;;;6.20;1.30;;;11.50;99.90;;;;;;4985980;28;20634;-64
2022/09/20 02:59:03;;;;;;;9.48;1.70;;;11.50;99.90;;;;;;4995900;28;20228;-64
2022/09/20 03:01:45;;;;;;;2.05;1.08;;;11.50;99.90;;;;;;4995303;28;20424;-64
2022/09/20 03:04:24;;;;;;;6.05;1.45;;;11.40;99.90;;;;;;4967905;28;20225;-65
2022/09/20 03:07:01;;;;;;;4.43;1.50;;;11.30;99.90;;;;;;4985535;28;20226;-65
2022/09/20 03:09:33;;;;;;;3.85;1.27;;;11.30;99.90;;;;;;4977079;28;20230;-65
2022/09/20 03:12:11;;;;;;;3.17;1.30;;;12.40;99.90;;;;;;4980705;28;20772;-65
2022/09/20 03:14:42;;;;;;;3.88;1.45;;;11.40;99.90;;;;;;4993277;28;20461;-65
2022/09/20 03:17:22;;;;;;;7.75;1.77;;;11.30;99.90;;;;;;4992987;28;20206;-65
2022/09/20 03:20:00;;;;;;;9.07;1.50;;;11.00;99.90;;;;;;4976993;28;20800;-64
2022/09/20 03:22:42;;;;;;;6.85;1.65;;;10.90;99.90;;;;;;4981901;28;20249;-65
2022/09/20 03:25:44;;;;;;;8.70;1.50;;;11.00;99.90;;;;;;4991561;28;20566;-65
2022/09/20 03:28:36;;;;;;;5.40;1.70;;;9.20;99.90;;;;;;5000395;28;20228;-65
2022/09/20 03:31:11;;;;;;;3.63;1.25;;;10.90;99.90;;;;;;4971135;28;20202;-65
2022/09/20 03:33:47;;;;;;;5.57;1.33;;;10.90;99.90;;;;;;4963473;28;21267;-65
2022/09/20 03:36:32;;;;;;;5.17;1.47;;;11.10;99.90;;;;;;4990982;28;20220;-64
2022/09/20 03:39:20;;;;;;;8.50;1.58;;;11.00;99.90;;;;;;4964719;28;20596;-65
2022/09/20 03:42:14;;;;;;;4.70;1.33;;;11.00;99.90;;;;;;4976942;28;20233;-65
2022/09/20 03:45:14;;;;;;;5.13;1.30;;;11.30;99.90;;;;;;4991008;28;20217;-65
2022/09/20 03:48:07;;;;;;;7.57;1.67;;;11.10;99.90;;;;;;4972110;28;20739;-64
2022/09/20 03:50:45;;;;;;;7.27;1.43;;;11.00;99.90;;;;;;4951007;28;20797;-65
2022/09/20 03:53:47;;;;;;;5.90;2.10;;;11.10;99.90;;;;;;4990563;28;20206;-64
2022/09/20 03:56:47;;;;;;;6.40;1.53;;;11.10;99.90;;;;;;4967245;28;21348;-66
2022/09/20 03:59:30;;;;;;;2.87;1.33;;;11.20;99.90;;;;;;4959031;28;20256;-64
2022/09/20 04:02:24;;;;;;;6.90;1.30;;;11.50;99.90;;;;;;4988949;28;20226;-64
2022/09/20 04:04:55;;;;;;;4.40;1.73;;;11.30;99.90;;;;;;4974813;28;20331;-65
2022/09/20 04:07:27;;;;;;;6.00;1.60;;;11.30;99.90;;;;;;5004912;28;20539;-65
2022/09/20 04:10:24;;;;;;;7.53;1.30;;;12.30;99.90;;;;;;4985067;28;20333;-65
2022/09/20 04:13:05;;;;;;;3.93;1.03;;;11.50;99.90;;;;;;5005765;28;20796;-65
2022/09/20 04:15:39;;;;;;;5.37;1.30;;;11.60;99.90;;;;;;4957089;28;20249;-65
2022/09/20 04:18:18;;;;;;;5.22;1.67;;;11.70;99.90;;;;;;4991675;28;20691;-65
2022/09/20 04:20:48;;;;;;;4.35;1.08;;;11.70;99.90;;;;;;4966833;28;20691;-65
2022/09/20 04:23:31;;;;;;;7.45;1.38;;;11.70;99.90;;;;;;4994784;28;21048;-65
2022/09/20 04:26:00;;;;;;;3.30;1.20;;;11.80;99.90;;;;;;4982652;28;20226;-65
2022/09/20 04:28:35;;;;;;;7.25;1.75;;;11.70;99.90;;;;;;5000567;28;20219;-66
2022/09/20 04:31:12;;;;;;;2.70;0.97;;;11.90;99.90;;;;;;4976648;28;20218;-65
2022/09/20 04:33:45;;;;;;;3.35;1.13;;;12.20;99.90;;;;;;4980166;28;20222;-65
2022/09/20 04:36:28;;;;;;;3.92;1.45;;;11.90;99.90;;;;;;4973465;28;20230;-66
2022/09/20 04:39:07;;;;;;;8.35;1.42;;;11.90;99.90;;;;;;4982258;28;20973;-65
2022/09/20 04:42:23;;;;;;;6.95;1.60;;;11.90;99.90;;;;;;4979449;28;20809;-65
2022/09/20 04:45:27;;;;;;;5.47;1.15;;;11.80;99.90;;;;;;4984299;28;20237;-65
2022/09/20 04:48:34;;;;;;;5.60;1.65;;;12.00;99.90;;;;;;4996595;28;20213;-65
2022/09/20 04:51:43;;;;;;;6.20;1.50;;;12.00;99.90;;;;;;4973913;28;20288;-66
2022/09/20 04:54:43;;;;;;;3.65;1.40;;;12.00;99.90;;;;;;4990839;28;20190;-65
2022/09/20 04:57:40;;;;;;;9.10;1.60;;;12.00;99.90;;;;;;4963126;28;20234;-66
2022/09/20 05:00:11;;;;;;;5.78;1.40;;;12.00;99.90;;;;;;4967773;28;20230;-67
2022/09/20 05:03:01;;;;;;;5.30;1.30;;;12.00;99.90;;;;;;4965846;28;20951;-66
2022/09/20 05:06:01;;;;;;;4.60;1.35;;;12.00;99.90;;;;;;4997124;28;20222;-66
2022/09/20 05:09:04;;;;;;;4.53;1.35;;;12.10;99.90;;;;;;4959543;28;20201;-65
2022/09/20 05:12:04;;;;;;;5.90;1.58;;;12.00;99.90;;;;;;4971202;28;20303;-66
2022/09/20 05:15:05;;;;;;;4.18;1.33;;;12.20;99.90;;;;;;4986408;28;20886;-65
2022/09/20 05:17:44;;;;;;;7.28;1.40;;;12.10;99.90;;;;;;4948427;28;20222;-66
2022/09/20 05:20:38;;;;;;;3.85;1.20;;;12.10;99.90;;;;;;4995468;28;20244;-66
2022/09/20 05:23:21;;;;;;;3.97;1.40;;;12.10;99.90;;;;;;4965391;28;20241;-66
2022/09/20 05:26:07;;;;;;;6.00;1.50;;;12.30;99.90;;;;;;4999139;28;20218;-65
2022/09/20 05:28:39;;;;;;;8.30;1.52;;;12.10;99.90;;;;;;4983773;28;20222;-65
2022/09/20 05:31:12;;;;;;;4.35;1.65;;;12.90;99.90;;;;;;4959010;28;21797;-66
2022/09/20 05:33:48;;;;;;;7.60;1.40;;;8.50;99.90;;;;;;4978560;28;20226;-66
2022/09/20 05:36:26;;;;;;;3.97;1.48;;;12.00;99.90;;;;;;4977758;28;20198;-65
2022/09/20 05:39:00;;;;;;;3.30;1.23;;;12.00;99.90;;;;;;4962556;28;20206;-66
2022/09/20 05:41:35;;;;;;;3.97;1.80;;;12.00;99.90;;;;;;4985804;28;20228;-66
2022/09/20 05:44:11;;;;;;;5.20;1.42;;;13.90;99.90;;;;;;4986561;28;20416;-66
2022/09/20 05:46:52;;;;;;;6.53;1.30;;;12.00;99.90;;;;;;4989840;28;20256;-66
2022/09/20 05:49:38;;;;;;;8.00;1.55;;;11.80;99.90;;;;;;4973801;28;20916;-66
2022/09/20 05:52:15;;;;;;;6.38;1.40;;;12.50;99.90;;;;;;4949605;28;20969;-66
2022/09/20 05:55:03;;;;;;;6.65;1.83;;;12.20;99.90;;;;;;4986736;28;20202;-65
2022/09/20 05:57:42;;;;;;;2.17;1.10;;;12.00;99.90;;;;;;5001547;28;20229;-65
2022/09/20 06:00:14;;;;;;;9.43;1.38;;;11.90;99.90;;;;;;4984202;28;20218;-66
2022/09/20 06:02:52;;;;;;;6.32;1.17;;;11.90;99.90;;;;;;4978442;28;20587;-65
2022/09/20 06:05:33;;;;;;;5.13;1.48;;;11.90;99.90;;;;;;4991466;28;20205;-66
2022/09/20 06:08:38;;;;;;;9.10;1.85;;;11.60;99.90;;;;;;4966900;28;20416;-66
2022/09/20 06:11:21;;;;;;;3.88;1.10;;;11.90;99.90;;;;;;4964890;28;20213;-65
2022/09/20 06:14:03;;;;;;;5.72;1.25;;;11.80;99.90;;;;;;5004353;28;20743;-65
2022/09/20 06:16:42;;;;;;;10.20;1.40;;;11.70;99.90;;;;;;5008517;28;20639;-66
2022/09/20 06:19:18;;;;;;;4.55;1.45;;;12.00;99.90;;;;;;4983479;28;20792;-66
2022/09/20 06:21:51;;;;;;;4.38;1.10;;;11.70;99.90;;;;;;4980787;28;20682;-65
2022/09/20 06:24:29;;;;;;;2.15;1.20;;;11.80;99.90;;;;;;4978783;28;20201;-66
2022/09/20 06:26:59;;;;;;;1.15;0.88;;;11.80;99.90;;;;;;5004597;28;20205;-65
2022/09/20 06:29:30;;;;;;;6.90;1.67;;;11.80;99.90;;;;;;5005546;28;20225;-66
2022/09/20 06:31:57;;;;;;;4.22;1.90;;;11.90;99.90;;;;;;5004055;28;20195;-65
2022/09/20 06:34:25;;;;;;;3.30;1.20;;;12.00;99.90;;;;;;4989999;28;20206;-67
2022/09/20 06:42:36;;;;;;;6.60;1.55;;;12.00;99.90;;;;;;5009139;28;20200;-66
2022/09/20 06:45:03;;;;;;;5.97;1.35;;;12.10;99.90;;;;;;5004965;28;20397;-66
2022/09/20 06:47:30;;;;;;;2.20;1.05;;;12.10;99.90;;;;;;5010299;28;20683;-64
2022/09/20 06:49:58;;;;;;;6.57;1.40;;;;;;;;;;4984490;28;20257;-63
2022/09/20 06:52:27;;;;;;;4.57;1.20;;;12.30;99.90;;;;;;4990135;28;20708;-64
2022/09/20 06:54:56;;;;;;;5.65;1.52;;;12.30;99.90;;;;;;4983451;28;20681;-64
2022/09/20 06:57:27;;;;;;;7.28;1.45;;;12.30;99.90;;;;;;4977297;28;20651;-64
2022/09/20 06:59:53;;;;;;;5.03;1.40;;;12.30;99.90;;;;;;5002287;28;20664;-64
2022/09/20 07:02:20;;;;;;;4.32;1.27;;;12.40;99.90;;;;;;4998980;28;20868;-64
2022/09/20 07:04:47;;;;;;;2.10;1.40;;;12.40;99.90;;;;;;4997180;28;20203;-64
2022/09/20 07:07:18;;;;;;;8.55;1.70;;;12.50;99.90;;;;;;4983849;28;20218;-65
2022/09/20 07:09:46;;;;;;;5.50;1.02;;;;;;;;;;4977292;28;20346;-64
2022/09/20 07:12:13;;;;;;;11.90;1.33;;;12.60;99.90;;;;;;4979110;28;20620;-64
2022/09/20 07:14:40;;;;;;;4.93;1.75;;;12.60;99.90;;;;;;4984915;28;20653;-64
2022/09/20 07:17:07;;;;;;;10.05;1.48;;;12.60;99.90;;;;;;4975403;28;20207;-64
2022/09/20 07:19:35;;;;;;;4.43;1.20;;;12.60;99.90;;;;;;4972285;28;20242;-64
2022/09/20 07:22:02;;;;;;;8.93;1.40;;;12.70;99.90;;;;;;4967008;28;20207;-63
2022/09/20 07:24:31;;;;;;;5.10;1.23;;;12.70;99.90;;;;;;4981731;28;20417;-64
2022/09/20 07:27:03;;;;;;;4.38;1.23;;;12.80;99.90;;;;;;4956519;28;20349;-63
2022/09/20 07:29:31;;;;;;;6.40;1.63;;;14.50;99.90;;;;;;4978708;28;20270;-64
2022/09/20 07:31:58;;;;;;;12.27;1.42;;;12.90;99.90;;;;;;4987719;28;20688;-63
2022/09/20 07:34:26;;;;;;;6.90;1.40;;;12.80;99.90;;;;;;4967337;28;21589;-64
2022/09/20 07:36:52;;;;;;;9.50;1.80;;;13.00;99.90;;;;;;4957425;28;20207;-64
2022/09/20 07:39:19;;;;;;;8.18;1.50;;;13.30;99.90;;;;;;4968052;28;20679;-64
2022/09/20 07:41:49;;;;;;;6.35;1.40;;;13.10;99.90;;;;;;4959281;28;20206;-65
2022/09/20 07:44:23;;;;;;;8.27;1.20;;;13.10;99.90;;;;;;4967803;28;20234;-64
2022/09/20 07:46:50;;;;;;;7.78;1.50;;;13.00;99.90;;;;;;4986697;28;20230;-64
2022/09/20 07:49:18;;;;;;;5.05;0.90;;;13.20;99.90;;;;;;4978218;28;20331;-64
2022/09/20 07:51:45;;;;;;;6.57;1.50;;;13.10;99.90;;;;;;4963149;28;20208;-64
2022/09/20 07:54:11;;;;;;;2.65;0.98;;;13.20;99.90;;;;;;4983989;28;20198;-64
2022/09/20 07:56:38;;;;;;;3.60;0.82;;;13.20;99.90;;;;;;4972268;28;20211;-64
2022/09/20 07:59:05;;;;;;;5.32;1.10;;;13.10;99.90;;;;;;4952065;28;20904;-65
2022/09/20 08:01:33;;;;;;;7.22;1.40;;;13.10;99.90;;;;;;4983442;28;20269;-64
2022/09/20 08:04:00;;;;;;;6.40;0.95;;;13.00;99.90;;;;;;4985029;28;20622;-64
2022/09/20 08:06:27;;;;;;;3.35;1.05;;;13.00;99.90;;;;;;4979358;28;20431;-64
2022/09/20 08:08:55;;;;;;;6.25;1.30;;;12.90;99.90;;;;;;4965341;28;20588;-64
2022/09/20 08:11:24;;;;;;;2.72;1.15;;;13.00;99.90;;;;;;4976186;28;20870;-64
2022/09/20 08:13:53;;;;;;;3.47;0.73;;;13.60;99.90;;;;;;4977711;28;20227;-64
2022/09/20 08:16:21;;;;;;;5.30;1.05;;;13.00;99.90;;;;;;4988026;28;20206;-64
2022/09/20 08:18:51;;;;;;;3.88;0.88;;;12.80;99.90;;;;;;4998462;28;20214;-64
2022/09/20 08:21:18;;;;;;;4.93;1.27;;;13.10;99.90;;;;;;5000088;28;20879;-64
2022/09/20 08:23:47;;;;;;;3.88;1.00;;;13.10;99.90;;;;;;4988962;28;20198;-64
2022/09/20 08:26:16;;;;;;;6.07;1.08;;;12.00;99.90;;;;;;4989907;28;20331;-64
2022/09/20 08:28:44;;;;;;;3.22;1.00;;;13.30;99.90;;;;;;4976191;28;20202;-63
2022/09/20 08:31:12;;;;;;;3.38;0.75;;;13.30;99.90;;;;;;4988922;28;20223;-64
2022/09/20 08:33:40;;;;;;;4.03;0.85;;;13.30;99.90;;;;;;4999101;28;20218;-64
2022/09/20 08:36:12;;;;;;;5.57;0.90;;;13.20;99.90;;;;;;4998948;28;20221;-64
2022/09/20 08:38:39;;;;;;;9.93;1.60;;;13.40;99.90;;;;;;4983049;28;20248;-64
2022/09/20 08:41:21;;;;;;;6.95;1.13;;;13.30;99.90;;;;;;4996764;28;20221;-65
2022/09/20 08:43:54;;;;;;;2.63;0.82;;;13.30;99.90;;;;;;4984035;28;20210;-64
2022/09/20 08:46:27;;;;;;;7.95;1.20;;;13.30;99.90;;;;;;4992101;28;20222;-65
2022/09/20 08:48:54;;;;;;;1.98;1.15;;;13.30;99.90;;;;;;5008286;28;20242;-64
2022/09/20 08:51:28;;;;;;;2.63;0.90;;;13.50;99.90;;;;;;4998437;28;20230;-64
2022/09/20 08:53:56;;;;;;;2.28;0.63;;;13.30;99.90;;;;;;4978786;28;20225;-63
2022/09/20 08:56:28;;;;;;;2.42;0.70;;;13.10;99.90;;;;;;4995707;28;20304;-64
2022/09/20 08:58:59;;;;;;;2.80;0.60;;;13.00;99.90;;;;;;4986032;28;20234;-64
2022/09/20 09:01:30;;;;;;;2.25;0.90;;;13.10;99.90;;;;;;4972301;28;21026;-67
2022/09/20 09:04:02;;;;;;;2.78;1.00;;;13.00;99.90;;;;;;5006218;28;20214;-64
2022/09/20 09:06:30;;;;;;;4.38;1.00;;;12.90;99.90;;;;;;5001516;28;20218;-65
2022/09/20 09:08:59;;;;;;;3.20;0.80;;;12.70;99.90;;;;;;4989722;28;20264;-64
2022/09/20 09:11:27;;;;;;;2.47;0.90;;;12.80;99.90;;;;;;5003640;28;20260;-65
2022/09/20 09:13:57;;;;;;;6.53;1.10;;;12.80;99.90;;;;;;4990005;28;20349;-65
2022/09/20 09:16:27;;;;;;;4.38;0.98;;;12.80;99.90;;;;;;4984351;28;20205;-65
2022/09/20 09:18:54;;;;;;;5.55;0.80;;;13.20;99.90;;;;;;4976111;28;20730;-64
2022/09/20 09:21:23;;;;;;;2.78;0.85;;;13.00;99.90;;;;;;4991427;28;20546;-64
2022/09/20 09:23:56;;;;;;;3.85;1.20;;;13.10;99.90;;;;;;5000360;28;20214;-64
2022/09/20 09:26:25;;;;;;;1.73;1.10;;;13.10;99.90;;;;;;4976562;28;20432;-65
2022/09/20 09:29:16;;;;;;;2.03;0.80;;;13.30;99.90;;;;;;4986323;28;20313;-64
2022/09/20 09:31:44;;;;;;;4.60;1.10;;;13.50;99.90;;;;;;4970214;28;20324;-65
2022/09/20 09:34:24;;;;;;;2.08;1.55;;;13.40;99.90;;;;;;4989636;28;20206;-65
2022/09/20 09:36:53;;;;;;;4.38;1.00;;;13.40;99.90;;;;;;5003084;28;20646;-65
2022/09/20 09:39:25;;;;;;;5.97;1.17;;;13.40;99.90;;;;;;5000041;28;20916;-65
2022/09/20 09:41:52;;;;;;;2.15;1.30;;;13.60;99.90;;;;;;4981597;28;20522;-65
2022/09/20 09:44:21;;;;;;;2.05;0.82;;;13.60;99.90;;;;;;4995479;28;20221;-65
2022/09/20 09:46:50;;;;;;;2.17;0.77;;;13.40;99.90;;;;;;4977812;28;20206;-65
2022/09/20 09:49:19;;;;;;;3.13;0.88;;;13.50;99.90;;;;;;4995910;28;20206;-65
2022/09/20 09:52:05;;;;;;;3.65;0.80;;;13.40;99.90;;;;;;4992444;28;20455;-65
2022/09/20 09:54:36;;;;;;;5.18;0.90;;;14.00;99.90;;;;;;5001133;28;20194;-65
2022/09/20 09:57:15;;;;;;;3.03;1.30;;;13.60;99.90;;;;;;4985352;28;20294;-66
2022/09/20 09:59:54;;;;;;;3.33;1.58;;;13.60;99.90;;;;;;4991723;28;20680;-65
2022/09/20 10:02:44;;;;;;;3.08;1.10;;;13.60;99.90;;;;;;4984164;28;20210;-64
2022/09/20 10:05:19;;;;;;;2.55;1.10;;;13.50;99.90;;;;;;4995711;28;20207;-65
2022/09/20 10:07:53;;;;;;;4.75;1.15;;;13.60;99.90;;;;;;5008343;28;20271;-65
2022/09/20 10:10:27;;;;;;;8.43;1.38;;;13.60;99.90;;;;;;5003082;28;20533;-65
2022/09/20 10:13:07;;;;;;;4.35;1.00;;;13.50;99.90;;;;;;4987358;28;20723;-66
2022/09/20 10:15:44;;;;;;;3.97;1.20;;;13.40;99.90;;;;;;4983671;28;20233;-65
2022/09/20 10:18:25;;;;;;;2.85;1.05;;;13.40;99.90;;;;;;4976932;28;20214;-65
2022/09/20 10:21:06;;;;;;;7.30;1.35;;;12.30;99.90;;;;;;4987082;28;21014;-66
2022/09/20 10:23:46;;;;;;;4.00;1.30;;;13.50;99.90;;;;;;5004010;28;20321;-66
2022/09/20 10:26:27;;;;;;;1.48;0.88;;;13.50;99.90;;;;;;5003662;28;20226;-66
2022/09/20 10:29:03;;;;;;;2.75;1.17;;;13.50;99.90;;;;;;5002942;28;21053;-66
2022/09/20 10:31:47;;;;;;;3.58;1.02;;;13.50;99.90;;;;;;4992574;28;21331;-66
2022/09/20 10:34:47;;;;;;;3.15;1.10;;;13.50;99.90;;;;;;5006954;28;20194;-66
2022/09/20 10:37:23;;;;;;;4.10;0.95;;;13.40;99.90;;;;;;4990805;28;20245;-66
2022/09/20 10:40:03;;;;;;;3.17;1.20;;;13.20;99.90;;;;;;5003649;28;20218;-66
2022/09/20 10:45:32;;;;;;;2.75;0.90;;;13.30;99.90;;;;;;5004580;28;20326;-66
2022/09/20 10:48:06;;;;;;;3.33;1.05;;;13.30;99.90;;;;;;4985146;28;20348;-66
2022/09/20 10:50:41;;;;;;;4.07;1.20;;;12.30;99.90;;;;;;5006697;28;20272;-66
2022/09/20 10:53:26;;;;;;;2.67;1.00;;;13.40;99.90;;;;;;4999110;28;20535;-66
2022/09/20 10:56:08;;;;;;;3.53;1.20;;;13.50;99.90;;;;;;5005216;28;20218;-66
2022/09/20 10:58:47;;;;;;;1.00;0.50;;;13.60;99.90;;;;;;4989281;28;20699;-66
2022/09/20 11:01:21;;;;;;;3.83;1.33;;;13.70;99.90;;;;;;5008621;28;20202;-66
2022/09/20 11:04:26;;;;;;;3.42;1.90;;;13.80;99.90;;;;;;4980400;28;20221;-65
2022/09/20 11:07:09;;;;;;;6.50;1.20;;;13.70;99.90;;;;;;5011837;28;20218;-66
2022/09/20 11:09:40;;;;;;;2.33;1.00;;;13.70;99.90;;;;;;4979979;28;20222;-65
2022/09/20 11:12:15;;;;;;;2.72;1.10;;;13.70;99.90;;;;;;5003800;28;20249;-66
2022/09/20 11:14:48;;;;;;;1.90;0.52;;;13.70;99.90;;;;;;4990561;28;20352;-65
2022/09/20 11:17:22;;;;;;;4.38;0.90;;;13.60;99.90;;;;;;5008631;28;20221;-65
2022/09/20 11:19:56;;;;;;;2.80;0.80;;;13.50;99.90;;;;;;4978784;28;21001;-65
2022/09/20 11:22:27;;;;;;;1.00;0.70;;;13.90;99.90;;;;;;5003346;28;20986;-66
2022/09/20 11:25:01;;;;;;;5.35;1.08;;;13.50;99.90;;;;;;5005973;28;20205;-65
2022/09/20 11:27:32;;;;;;;2.15;0.73;;;13.60;99.90;;;;;;5006784;28;20202;-65
2022/09/20 11:30:04;;;;;;;3.92;0.73;;;13.60;99.90;;;;;;4988581;28;20206;-66
2022/09/20 11:32:36;;;;;;;4.03;0.85;;;16.90;99.90;;;;;;4983987;28;20232;-67
2022/09/20 11:35:16;;;;;;;5.97;0.80;;;13.40;98.90;;;;;;4995232;28;20578;-66
2022/09/20 11:37:47;;;;;;;4.45;1.05;;;13.30;99.90;;;;;;5001312;28;20198;-66
2022/09/20 11:40:21;;;;;;;2.58;0.77;;;13.50;99.60;;;;;;4998379;28;20206;-65
2022/09/20 11:42:49;;;;;;;1.15;0.70;;;13.60;93.70;;;;;;4997321;28;20343;-67
2022/09/20 11:45:18;;;;;;;1.73;0.50;;;13.50;84.60;;;;;;4985317;28;20221;-65
2022/09/20 11:47:51;;;;;;;2.92;0.82;;;13.60;85.20;;;;;;4975574;28;20222;-65
2022/09/20 11:50:52;;;;;;;1.95;0.63;;;13.00;75.10;;;;;;4990979;28;20226;-65
2022/09/20 11:53:32;;;;;;;5.75;1.08;;;13.60;80.20;;;;;;5003173;28;20508;-65
2022/09/20 11:56:05;;;;;;;3.58;0.77;;;13.70;65.80;;;;;;4987835;28;20843;-65
2022/09/20 11:58:45;;;;;;;4.90;1.02;;;13.60;42.70;;;;;;4982861;28;20225;-66
2022/09/20 12:01:15;;;;;;;2.90;1.08;;;13.60;33.70;;;;;;4985340;28;20206;-66
2022/09/20 12:03:50;;;;;;;4.95;0.77;;;13.70;46.50;;;;;;4935115;28;20222;-65
2022/09/20 12:06:26;;;;;;;2.53;1.00;;;13.70;47.70;;;;;;4988845;28;20222;-65
2022/09/20 12:08:57;;;;;;;4.93;1.15;;;13.80;47.70;;;;;;4975685;28;20599;-65
2022/09/20 12:11:31;;;;;;;3.50;0.93;;;13.80;43.40;;;;;;4979666;28;20464;-65
2022/09/20 12:14:03;;;;;;;5.53;1.27;;;13.90;44.80;;;;;;4986936;28;20711;-65
2022/09/20 12:16:41;;;;;;;2.80;0.93;;;13.70;42.70;;;;;;4973493;28;20230;-65
2022/09/20 12:19:12;;;;;;;3.78;1.40;;;13.90;52.30;;;;;;4963556;28;20899;-66
2022/09/20 12:22:18;;;;;;;6.65;1.00;;;14.10;55.70;;;;;;4982751;28;20567;-66
2022/09/20 12:24:44;;;;;;;5.53;1.23;;;14.10;44.70;;;;;;4988787;28;20763;-66
2022/09/20 12:27:42;;;;;;;2.65;1.02;;;14.20;42.00;;;;;;4988494;28;20691;-66
2022/09/20 12:30:19;;;;;;;4.30;0.85;;;14.20;28.00;;;;;;4966358;28;20222;-66
2022/09/20 12:32:52;;;;;;;3.97;0.95;;;14.30;42.20;;;;;;4998149;28;20232;-65
2022/09/20 12:36:01;;;;;;;8.05;1.70;;;14.40;43.80;;;;;;4955821;28;20882;-66
2022/09/20 12:38:48;;;;;;;4.57;1.13;;;14.30;29.40;;;;;;4964941;28;20226;-66
2022/09/20 12:41:18;;;;;;;2.50;0.75;;;15.20;29.70;;;;;;4976331;28;20226;-66
2022/09/20 12:44:05;;;;;;;3.03;1.30;;;14.50;33.50;;;;;;4992116;28;20412;-65
2022/09/20 12:46:38;;;;;;;5.30;0.90;;;14.70;10.20;;;;;;4971580;28;20237;-66
2022/09/20 12:52:52;;;;;;;5.18;1.00;;;14.50;24.70;;;;;;4960811;28;22336;-66
2022/09/20 12:55:44;;;;;;;5.43;1.38;;;14.70;24.90;;;;;;4984208;28;20209;-66
2022/09/20 12:58:33;;;;;;;4.28;1.00;;;14.30;26.30;;;;;;4983024;28;20320;-65
2022/09/20 13:01:46;;;;;;;1.30;0.70;;;14.00;36.40;;;;;;4983703;28;20425;-65
2022/09/20 13:07:46;;;;;;;6.50;1.27;;;13.70;84.40;;;;;;4924373;28;20728;-65
2022/09/20 13:10:39;;;;;;;0.80;0.50;;;13.60;87.40;;;;;;4987212;28;20946;-65
2022/09/20 13:13:16;;;;;;;4.88;1.40;;;;;;;;;;4974047;28;20605;-66
2022/09/20 13:15:51;;;;;;;5.22;0.93;;;13.30;93.50;;;;;;4984020;28;20338;-65
2022/09/20 13:18:19;;;;;;;1.40;0.75;;;13.40;97.30;;;;;;4971011;28;20233;-66
2022/09/20 13:20:46;;;;;;;1.77;1.00;;;13.20;96.70;;;;;;4963837;28;20807;-66
2022/09/20 13:23:21;;;;;;;1.65;0.57;;;13.30;99.20;;;;;;4983366;28;20233;-65
2022/09/20 13:25:49;;;;;;;2.88;0.70;;;13.10;99.90;;;;;;4973248;28;20233;-65
2022/09/20 13:28:27;;;;;;;1.35;0.60;;;13.40;99.90;;;;;;4983087;28;20230;-65
2022/09/20 13:31:35;;;;;;;1.13;0.57;;;13.40;99.90;;;;;;4989238;28;21481;-65
2022/09/20 13:34:29;;;;;;;3.60;1.10;;;14.00;99.90;;;;;;4930736;28;20619;-65
2022/09/20 13:36:58;;;;;;;1.40;0.50;;;13.60;99.90;;;;;;4912705;28;20233;-65
2022/09/20 13:39:36;;;;;;;1.48;0.60;;;13.60;99.90;;;;;;4969270;28;20609;-65
2022/09/20 13:42:10;;;;;;;4.55;1.30;;;9.70;99.90;;;;;;4988851;28;20229;-66
2022/09/20 13:44:38;;;;;;;1.73;0.80;;;13.60;99.90;;;;;;4998954;28;20762;-65
2022/09/20 13:47:26;;;;;;;0.68;0.50;;;13.60;99.90;;;;;;4990054;28;20234;-66
2022/09/20 13:49:59;;;;;;;3.38;0.80;;;13.60;99.90;;;;;;4964438;28;20233;-66
2022/09/20 13:52:28;;;;;;;2.47;0.85;;;13.70;99.90;;;;;;4969083;28;20386;-66
2022/09/20 13:54:56;;;;;;;3.38;0.82;;;13.70;99.90;;;;;;4971360;28;20218;-65
2022/09/20 13:57:27;;;;;;;2.33;0.70;;;13.70;96.80;;;;;;5000308;28;20350;-65